sensor_id;sensor_type;location;lat;lon;timestamp;temperature;humidity
12268;DHT22;6196;48.398;11.736;2022-07-17T00:00:54;13.50;99.90
12268;DHT22;6196;48.398;11.736;2022-07-17T00:03:21;13.40;99.90
12268;DHT22;6196;48.398;11.736;2022-07-17T00:05:48;13.40;99.90
12268;DHT22;6196;48.398;11.736;2022-07-17T00:08:15;13.50;99.90
12268;DHT22;6196;48.398;11.736;2022-07-17T00:10:43;13.50;99.90
12268;DHT22;6196;48.398;11.736;2022-07-17T00:13:10;13.50;99.90
12268;DHT22;6196;48.398;11.736;2022-07-17T00:15:38;13.50;99.90
12268;DHT22;6196;48.398;11.736;2022-07-17T00:18:05;13.50;99.90
12268;DHT22;6196;48.398;11.736;2022-07-17T00:20:33;13.50;99.90
12268;DHT22;6196;48.398;11.736;2022-07-17T00:23:01;13.50;99.90
12268;DHT22;6196;48.398;11.736;2022-07-17T00:25:28;13.40;99.90
12268;DHT22;6196;48.398;11.736;2022-07-17T00:27:55;13.40;99.90
12268;DHT22;6196;48.398;11.736;2022-07-17T00:30:22;13.40;99.90
12268;DHT22;6196;48.398;11.736;2022-07-17T00:32:49;13.30;99.90
12268;DHT22;6196;48.398;11.736;2022-07-17T00:35:16;13.20;99.90
12268;DHT22;6196;48.398;11.736;2022-07-17T00:37:47;13.20;99.90
12268;DHT22;6196;48.398;11.736;2022-07-17T00:40:21;13.20;99.90
12268;DHT22;6196;48.398;11.736;2022-07-17T00:42:50;13.10;99.90
12268;DHT22;6196;48.398;11.736;2022-07-17T00:45:19;13.10;99.90
12268;DHT22;6196;48.398;11.736;2022-07-17T00:48:01;13.10;99.90
12268;DHT22;6196;48.398;11.736;2022-07-17T00:50:33;13.10;99.90
12268;DHT22;6196;48.398;11.736;2022-07-17T00:53:06;13.00;99.90
12268;DHT22;6196;48.398;11.736;2022-07-17T00:55:34;13.00;99.90
12268;DHT22;6196;48.398;11.736;2022-07-17T00:58:13;13.10;99.90
12268;DHT22;6196;48.398;11.736;2022-07-17T01:00:46;13.00;99.90
12268;DHT22;6196;48.398;11.736;2022-07-17T01:03:15;12.90;99.90
12268;DHT22;6196;48.398;11.736;2022-07-17T01:05:43;13.00;99.90
12268;DHT22;6196;48.398;11.736;2022-07-17T01:08:10;13.10;99.90
12268;DHT22;6196;48.398;11.736;2022-07-17T01:10:37;13.10;99.90
12268;DHT22;6196;48.398;11.736;2022-07-17T01:13:05;13.10;99.90
12268;DHT22;6196;48.398;11.736;2022-07-17T01:15:36;13.00;99.90
12268;DHT22;6196;48.398;11.736;2022-07-17T01:18:10;12.80;99.90
12268;DHT22;6196;48.398;11.736;2022-07-17T01:20:40;12.80;99.90
12268;DHT22;6196;48.398;11.736;2022-07-17T01:23:09;12.80;99.90
12268;DHT22;6196;48.398;11.736;2022-07-17T01:25:37;12.80;99.90
12268;DHT22;6196;48.398;11.736;2022-07-17T01:28:05;12.70;99.90
12268;DHT22;6196;48.398;11.736;2022-07-17T01:30:33;12.80;99.90
12268;DHT22;6196;48.398;11.736;2022-07-17T01:33:01;12.70;99.90
12268;DHT22;6196;48.398;11.736;2022-07-17T01:35:28;12.70;99.90
12268;DHT22;6196;48.398;11.736;2022-07-17T01:37:55;12.70;99.90
12268;DHT22;6196;48.398;11.736;2022-07-17T01:40:22;12.60;99.90
12268;DHT22;6196;48.398;11.736;2022-07-17T01:42:49;12.60;99.90
12268;DHT22;6196;48.398;11.736;2022-07-17T01:45:18;12.60;99.90
12268;DHT22;6196;48.398;11.736;2022-07-17T01:47:46;12.60;99.90
12268;DHT22;6196;48.398;11.736;2022-07-17T01:50:14;12.60;99.90
12268;DHT22;6196;48.398;11.736;2022-07-17T01:52:43;12.60;99.90
12268;DHT22;6196;48.398;11.736;2022-07-17T01:55:13;12.70;99.90
12268;DHT22;6196;48.398;11.736;2022-07-17T01:57:42;12.70;99.90
12268;DHT22;6196;48.398;11.736;2022-07-17T02:00:13;12.70;99.90
12268;DHT22;6196;48.398;11.736;2022-07-17T02:02:44;12.60;99.90
12268;DHT22;6196;48.398;11.736;2022-07-17T02:05:11;12.60;99.90
12268;DHT22;6196;48.398;11.736;2022-07-17T02:07:38;12.60;99.90
12268;DHT22;6196;48.398;11.736;2022-07-17T02:10:08;12.60;99.90
12268;DHT22;6196;48.398;11.736;2022-07-17T02:12:35;12.60;99.90
12268;DHT22;6196;48.398;11.736;2022-07-17T02:15:04;12.60;99.90
12268;DHT22;6196;48.398;11.736;2022-07-17T02:17:32;12.60;99.90
12268;DHT22;6196;48.398;11.736;2022-07-17T02:19:59;12.50;99.90
12268;DHT22;6196;48.398;11.736;2022-07-17T02:22:26;12.50;99.90
12268;DHT22;6196;48.398;11.736;2022-07-17T02:24:53;12.50;99.90
12268;DHT22;6196;48.398;11.736;2022-07-17T02:27:20;12.50;99.90
12268;DHT22;6196;48.398;11.736;2022-07-17T02:29:47;12.60;99.90
12268;DHT22;6196;48.398;11.736;2022-07-17T02:32:14;12.60;99.90
12268;DHT22;6196;48.398;11.736;2022-07-17T02:34:41;12.70;99.90
12268;DHT22;6196;48.398;11.736;2022-07-17T02:37:08;12.70;99.90
12268;DHT22;6196;48.398;11.736;2022-07-17T02:39:34;12.70;99.90
12268;DHT22;6196;48.398;11.736;2022-07-17T02:42:01;12.70;99.90
12268;DHT22;6196;48.398;11.736;2022-07-17T02:44:28;12.70;99.90
12268;DHT22;6196;48.398;11.736;2022-07-17T02:46:55;12.60;99.90
12268;DHT22;6196;48.398;11.736;2022-07-17T02:49:22;12.40;99.90
12268;DHT22;6196;48.398;11.736;2022-07-17T02:51:49;12.40;99.90
12268;DHT22;6196;48.398;11.736;2022-07-17T02:54:16;12.40;99.90
12268;DHT22;6196;48.398;11.736;2022-07-17T02:56:42;12.40;99.90
12268;DHT22;6196;48.398;11.736;2022-07-17T02:59:09;12.50;99.90
12268;DHT22;6196;48.398;11.736;2022-07-17T03:01:36;12.50;99.90
12268;DHT22;6196;48.398;11.736;2022-07-17T03:04:03;12.60;99.90
12268;DHT22;6196;48.398;11.736;2022-07-17T03:06:30;12.60;99.90
12268;DHT22;6196;48.398;11.736;2022-07-17T03:08:57;12.60;99.90
12268;DHT22;6196;48.398;11.736;2022-07-17T03:11:24;12.60;99.90
12268;DHT22;6196;48.398;11.736;2022-07-17T03:13:51;12.50;99.90
12268;DHT22;6196;48.398;11.736;2022-07-17T03:16:18;12.50;99.90
12268;DHT22;6196;48.398;11.736;2022-07-17T03:18:45;12.30;99.90
12268;DHT22;6196;48.398;11.736;2022-07-17T03:21:12;12.20;99.90
12268;DHT22;6196;48.398;11.736;2022-07-17T03:23:39;12.20;99.90
12268;DHT22;6196;48.398;11.736;2022-07-17T03:26:06;12.10;99.90
12268;DHT22;6196;48.398;11.736;2022-07-17T03:28:33;12.10;99.90
12268;DHT22;6196;48.398;11.736;2022-07-17T03:31:00;12.10;99.90
12268;DHT22;6196;48.398;11.736;2022-07-17T03:33:28;12.10;99.90
12268;DHT22;6196;48.398;11.736;2022-07-17T03:35:55;12.00;99.90
12268;DHT22;6196;48.398;11.736;2022-07-17T03:38:22;11.90;99.90
12268;DHT22;6196;48.398;11.736;2022-07-17T03:40:49;11.80;99.90
12268;DHT22;6196;48.398;11.736;2022-07-17T03:43:16;11.80;99.90
12268;DHT22;6196;48.398;11.736;2022-07-17T03:45:43;11.80;99.90
12268;DHT22;6196;48.398;11.736;2022-07-17T03:48:10;11.80;99.90
12268;DHT22;6196;48.398;11.736;2022-07-17T03:50:37;11.80;99.90
12268;DHT22;6196;48.398;11.736;2022-07-17T03:53:04;11.90;99.90
12268;DHT22;6196;48.398;11.736;2022-07-17T03:55:31;11.80;99.90
12268;DHT22;6196;48.398;11.736;2022-07-17T03:57:59;11.90;99.90
12268;DHT22;6196;48.398;11.736;2022-07-17T04:00:26;11.90;99.90
12268;DHT22;6196;48.398;11.736;2022-07-17T04:02:53;12.00;99.90
12268;DHT22;6196;48.398;11.736;2022-07-17T04:05:20;12.00;99.90
12268;DHT22;6196;48.398;11.736;2022-07-17T04:07:47;11.90;99.90
12268;DHT22;6196;48.398;11.736;2022-07-17T04:10:14;11.90;99.90
12268;DHT22;6196;48.398;11.736;2022-07-17T04:12:41;12.00;99.90
12268;DHT22;6196;48.398;11.736;2022-07-17T04:15:09;12.00;99.90
12268;DHT22;6196;48.398;11.736;2022-07-17T04:17:36;11.90;99.90
12268;DHT22;6196;48.398;11.736;2022-07-17T04:20:03;11.90;99.90
12268;DHT22;6196;48.398;11.736;2022-07-17T04:22:31;11.80;99.90
12268;DHT22;6196;48.398;11.736;2022-07-17T04:24:58;11.90;99.90
12268;DHT22;6196;48.398;11.736;2022-07-17T04:27:25;11.90;99.90
12268;DHT22;6196;48.398;11.736;2022-07-17T04:29:51;12.00;99.90
12268;DHT22;6196;48.398;11.736;2022-07-17T04:32:18;12.00;99.90
12268;DHT22;6196;48.398;11.736;2022-07-17T04:34:45;12.00;99.90
12268;DHT22;6196;48.398;11.736;2022-07-17T04:37:12;12.00;99.90
12268;DHT22;6196;48.398;11.736;2022-07-17T04:39:39;12.00;99.90
12268;DHT22;6196;48.398;11.736;2022-07-17T04:42:06;12.00;99.90
12268;DHT22;6196;48.398;11.736;2022-07-17T04:44:32;12.10;99.90
12268;DHT22;6196;48.398;11.736;2022-07-17T04:46:59;12.10;99.90
12268;DHT22;6196;48.398;11.736;2022-07-17T04:49:27;12.30;99.90
12268;DHT22;6196;48.398;11.736;2022-07-17T04:51:54;12.40;99.90
12268;DHT22;6196;48.398;11.736;2022-07-17T04:54:20;12.50;99.90
12268;DHT22;6196;48.398;11.736;2022-07-17T04:56:47;12.60;99.90
12268;DHT22;6196;48.398;11.736;2022-07-17T04:59:14;12.70;99.90
12268;DHT22;6196;48.398;11.736;2022-07-17T05:01:41;12.80;99.90
12268;DHT22;6196;48.398;11.736;2022-07-17T05:04:08;13.00;99.90
12268;DHT22;6196;48.398;11.736;2022-07-17T05:06:35;13.10;99.90
12268;DHT22;6196;48.398;11.736;2022-07-17T05:09:02;13.30;99.90
12268;DHT22;6196;48.398;11.736;2022-07-17T05:11:29;13.40;99.90
12268;DHT22;6196;48.398;11.736;2022-07-17T05:13:57;13.50;99.90
12268;DHT22;6196;48.398;11.736;2022-07-17T05:16:24;13.60;99.90
12268;DHT22;6196;48.398;11.736;2022-07-17T05:18:51;13.70;99.90
12268;DHT22;6196;48.398;11.736;2022-07-17T05:21:17;13.90;99.90
12268;DHT22;6196;48.398;11.736;2022-07-17T05:23:44;14.00;99.90
12268;DHT22;6196;48.398;11.736;2022-07-17T05:26:12;14.10;99.90
12268;DHT22;6196;48.398;11.736;2022-07-17T05:28:39;14.20;99.90
12268;DHT22;6196;48.398;11.736;2022-07-17T05:31:06;14.30;99.90
12268;DHT22;6196;48.398;11.736;2022-07-17T05:33:33;14.40;99.90
12268;DHT22;6196;48.398;11.736;2022-07-17T05:36:00;14.60;99.90
12268;DHT22;6196;48.398;11.736;2022-07-17T05:38:27;14.70;99.90
12268;DHT22;6196;48.398;11.736;2022-07-17T05:40:54;14.90;99.90
12268;DHT22;6196;48.398;11.736;2022-07-17T05:43:21;15.10;99.90
12268;DHT22;6196;48.398;11.736;2022-07-17T05:45:48;15.30;99.90
12268;DHT22;6196;48.398;11.736;2022-07-17T05:48:15;15.50;99.90
12268;DHT22;6196;48.398;11.736;2022-07-17T05:50:42;15.60;99.90
12268;DHT22;6196;48.398;11.736;2022-07-17T05:53:09;15.80;99.90
12268;DHT22;6196;48.398;11.736;2022-07-17T05:55:36;16.00;99.90
12268;DHT22;6196;48.398;11.736;2022-07-17T05:58:03;16.30;99.90
12268;DHT22;6196;48.398;11.736;2022-07-17T06:00:30;16.50;99.90
12268;DHT22;6196;48.398;11.736;2022-07-17T06:02:57;16.70;99.90
12268;DHT22;6196;48.398;11.736;2022-07-17T06:05:24;17.00;99.90
12268;DHT22;6196;48.398;11.736;2022-07-17T06:07:54;17.30;99.90
12268;DHT22;6196;48.398;11.736;2022-07-17T06:10:22;17.70;99.90
12268;DHT22;6196;48.398;11.736;2022-07-17T06:12:50;18.00;99.90
12268;DHT22;6196;48.398;11.736;2022-07-17T06:15:20;18.50;99.90
12268;DHT22;6196;48.398;11.736;2022-07-17T06:17:47;18.80;99.90
12268;DHT22;6196;48.398;11.736;2022-07-17T06:20:15;19.20;99.90
12268;DHT22;6196;48.398;11.736;2022-07-17T06:22:44;19.50;99.90
12268;DHT22;6196;48.398;11.736;2022-07-17T06:25:11;19.70;99.90
12268;DHT22;6196;48.398;11.736;2022-07-17T06:27:40;19.90;99.90
12268;DHT22;6196;48.398;11.736;2022-07-17T06:30:13;19.90;99.90
12268;DHT22;6196;48.398;11.736;2022-07-17T06:32:40;20.10;99.90
12268;DHT22;6196;48.398;11.736;2022-07-17T06:35:08;20.20;99.90
12268;DHT22;6196;48.398;11.736;2022-07-17T06:37:36;20.40;99.90
12268;DHT22;6196;48.398;11.736;2022-07-17T06:40:04;20.40;99.90
12268;DHT22;6196;48.398;11.736;2022-07-17T06:42:31;20.80;99.90
12268;DHT22;6196;48.398;11.736;2022-07-17T06:44:58;20.70;99.90
12268;DHT22;6196;48.398;11.736;2022-07-17T06:47:25;20.80;99.90
12268;DHT22;6196;48.398;11.736;2022-07-17T06:49:52;21.20;99.90
12268;DHT22;6196;48.398;11.736;2022-07-17T06:52:19;21.30;99.90
12268;DHT22;6196;48.398;11.736;2022-07-17T06:54:46;21.30;99.90
12268;DHT22;6196;48.398;11.736;2022-07-17T06:57:13;21.40;99.90
12268;DHT22;6196;48.398;11.736;2022-07-17T06:59:40;21.60;99.70
12268;DHT22;6196;48.398;11.736;2022-07-17T07:02:07;21.70;99.90
12268;DHT22;6196;48.398;11.736;2022-07-17T07:04:34;21.90;99.40
12268;DHT22;6196;48.398;11.736;2022-07-17T07:07:01;22.20;99.40
12268;DHT22;6196;48.398;11.736;2022-07-17T07:09:28;22.40;99.00
12268;DHT22;6196;48.398;11.736;2022-07-17T07:11:55;22.70;98.00
12268;DHT22;6196;48.398;11.736;2022-07-17T07:14:21;22.50;97.90
12268;DHT22;6196;48.398;11.736;2022-07-17T07:16:48;22.60;97.80
12268;DHT22;6196;48.398;11.736;2022-07-17T07:19:15;22.90;96.70
12268;DHT22;6196;48.398;11.736;2022-07-17T07:21:42;23.00;96.70
12268;DHT22;6196;48.398;11.736;2022-07-17T07:24:09;23.30;97.00
12268;DHT22;6196;48.398;11.736;2022-07-17T07:26:36;23.50;96.80
12268;DHT22;6196;48.398;11.736;2022-07-17T07:29:03;23.50;97.10
12268;DHT22;6196;48.398;11.736;2022-07-17T07:31:30;23.50;96.10
12268;DHT22;6196;48.398;11.736;2022-07-17T07:33:58;23.70;96.50
12268;DHT22;6196;48.398;11.736;2022-07-17T07:36:24;23.80;95.20
12268;DHT22;6196;48.398;11.736;2022-07-17T07:38:55;24.10;95.80
12268;DHT22;6196;48.398;11.736;2022-07-17T07:41:22;24.20;94.60
12268;DHT22;6196;48.398;11.736;2022-07-17T07:43:49;24.30;95.10
12268;DHT22;6196;48.398;11.736;2022-07-17T07:46:16;24.20;93.70
12268;DHT22;6196;48.398;11.736;2022-07-17T07:48:43;24.10;93.70
12268;DHT22;6196;48.398;11.736;2022-07-17T07:51:10;24.20;94.00
12268;DHT22;6196;48.398;11.736;2022-07-17T07:53:38;24.40;93.90
12268;DHT22;6196;48.398;11.736;2022-07-17T07:56:05;24.70;93.60
12268;DHT22;6196;48.398;11.736;2022-07-17T07:58:32;24.90;94.20
12268;DHT22;6196;48.398;11.736;2022-07-17T08:01:00;25.00;94.00
12268;DHT22;6196;48.398;11.736;2022-07-17T08:03:27;25.10;92.90
12268;DHT22;6196;48.398;11.736;2022-07-17T08:05:54;25.20;93.00
12268;DHT22;6196;48.398;11.736;2022-07-17T08:08:21;25.20;92.80
12268;DHT22;6196;48.398;11.736;2022-07-17T08:10:49;25.20;92.30
12268;DHT22;6196;48.398;11.736;2022-07-17T08:13:16;25.40;93.00
12268;DHT22;6196;48.398;11.736;2022-07-17T08:15:43;25.40;93.00
12268;DHT22;6196;48.398;11.736;2022-07-17T08:18:10;25.70;92.20
12268;DHT22;6196;48.398;11.736;2022-07-17T08:20:37;25.60;91.60
12268;DHT22;6196;48.398;11.736;2022-07-17T08:23:04;25.90;91.50
12268;DHT22;6196;48.398;11.736;2022-07-17T08:25:33;26.30;91.30
12268;DHT22;6196;48.398;11.736;2022-07-17T08:28:04;26.00;91.50
12268;DHT22;6196;48.398;11.736;2022-07-17T08:30:31;26.20;86.00
12268;DHT22;6196;48.398;11.736;2022-07-17T08:33:03;26.00;88.90
12268;DHT22;6196;48.398;11.736;2022-07-17T08:35:31;25.80;88.70
12268;DHT22;6196;48.398;11.736;2022-07-17T08:37:58;25.50;88.20
12268;DHT22;6196;48.398;11.736;2022-07-17T08:40:32;25.80;90.10
12268;DHT22;6196;48.398;11.736;2022-07-17T08:43:02;26.00;89.40
12268;DHT22;6196;48.398;11.736;2022-07-17T08:45:30;26.20;89.70
12268;DHT22;6196;48.398;11.736;2022-07-17T08:47:58;26.00;89.00
12268;DHT22;6196;48.398;11.736;2022-07-17T08:50:30;25.90;89.40
12268;DHT22;6196;48.398;11.736;2022-07-17T08:53:00;26.10;90.50
12268;DHT22;6196;48.398;11.736;2022-07-17T08:55:29;26.40;88.90
12268;DHT22;6196;48.398;11.736;2022-07-17T08:57:57;26.30;86.30
12268;DHT22;6196;48.398;11.736;2022-07-17T09:00:25;26.40;88.30
12268;DHT22;6196;48.398;11.736;2022-07-17T09:03:06;26.80;87.50
12268;DHT22;6196;48.398;11.736;2022-07-17T09:05:36;27.20;84.70
12268;DHT22;6196;48.398;11.736;2022-07-17T09:08:07;27.30;82.50
12268;DHT22;6196;48.398;11.736;2022-07-17T09:10:37;27.10;79.10
12268;DHT22;6196;48.398;11.736;2022-07-17T09:13:17;27.10;81.50
12268;DHT22;6196;48.398;11.736;2022-07-17T09:16:13;27.30;81.00
12268;DHT22;6196;48.398;11.736;2022-07-17T09:18:49;27.70;82.50
12268;DHT22;6196;48.398;11.736;2022-07-17T09:21:25;27.80;82.10
12268;DHT22;6196;48.398;11.736;2022-07-17T09:24:05;27.20;77.70
12268;DHT22;6196;48.398;11.736;2022-07-17T09:26:33;27.10;79.50
12268;DHT22;6196;48.398;11.736;2022-07-17T09:29:02;27.20;79.10
12268;DHT22;6196;48.398;11.736;2022-07-17T09:31:31;27.10;77.60
12268;DHT22;6196;48.398;11.736;2022-07-17T09:33:59;27.00;76.50
12268;DHT22;6196;48.398;11.736;2022-07-17T09:36:26;27.10;78.10
12268;DHT22;6196;48.398;11.736;2022-07-17T09:38:55;27.10;79.10
12268;DHT22;6196;48.398;11.736;2022-07-17T09:41:24;27.00;78.10
12268;DHT22;6196;48.398;11.736;2022-07-17T09:43:58;27.10;81.70
12268;DHT22;6196;48.398;11.736;2022-07-17T09:46:34;26.60;75.60
12268;DHT22;6196;48.398;11.736;2022-07-17T09:49:05;26.70;80.40
12268;DHT22;6196;48.398;11.736;2022-07-17T09:51:39;27.20;78.70
12268;DHT22;6196;48.398;11.736;2022-07-17T09:54:08;27.40;81.40
12268;DHT22;6196;48.398;11.736;2022-07-17T09:56:38;27.70;77.40
12268;DHT22;6196;48.398;11.736;2022-07-17T09:59:10;27.70;75.60
12268;DHT22;6196;48.398;11.736;2022-07-17T10:01:40;27.80;76.70
12268;DHT22;6196;48.398;11.736;2022-07-17T10:04:09;27.50;74.50
12268;DHT22;6196;48.398;11.736;2022-07-17T10:06:37;27.80;75.40
12268;DHT22;6196;48.398;11.736;2022-07-17T10:09:05;28.00;72.40
12268;DHT22;6196;48.398;11.736;2022-07-17T10:11:40;28.10;73.80
12268;DHT22;6196;48.398;11.736;2022-07-17T10:14:14;27.90;71.90
12268;DHT22;6196;48.398;11.736;2022-07-17T10:16:42;28.00;73.20
12268;DHT22;6196;48.398;11.736;2022-07-17T10:22:01;27.80;72.10
12268;DHT22;6196;48.398;11.736;2022-07-17T10:24:32;27.50;72.00
12268;DHT22;6196;48.398;11.736;2022-07-17T10:27:00;27.10;73.80
12268;DHT22;6196;48.398;11.736;2022-07-17T10:32:17;27.60;72.90
12268;DHT22;6196;48.398;11.736;2022-07-17T10:34:53;27.60;72.30
12268;DHT22;6196;48.398;11.736;2022-07-17T10:37:26;28.00;75.30
12268;DHT22;6196;48.398;11.736;2022-07-17T10:40:14;28.20;73.50
12268;DHT22;6196;48.398;11.736;2022-07-17T10:43:00;28.20;71.90
12268;DHT22;6196;48.398;11.736;2022-07-17T10:45:35;27.90;71.00
12268;DHT22;6196;48.398;11.736;2022-07-17T10:48:13;27.60;72.00
12268;DHT22;6196;48.398;11.736;2022-07-17T10:50:50;27.60;71.50
12268;DHT22;6196;48.398;11.736;2022-07-17T10:53:32;27.60;70.30
12268;DHT22;6196;48.398;11.736;2022-07-17T10:56:06;27.90;70.20
12268;DHT22;6196;48.398;11.736;2022-07-17T10:58:36;28.10;69.40
12268;DHT22;6196;48.398;11.736;2022-07-17T11:03:47;29.00;72.80
12268;DHT22;6196;48.398;11.736;2022-07-17T11:06:20;29.30;72.90
12268;DHT22;6196;48.398;11.736;2022-07-17T11:08:52;29.20;67.80
12268;DHT22;6196;48.398;11.736;2022-07-17T11:11:35;29.10;68.80
12268;DHT22;6196;48.398;11.736;2022-07-17T11:14:23;29.20;65.80
12268;DHT22;6196;48.398;11.736;2022-07-17T11:16:53;28.80;67.40
12268;DHT22;6196;48.398;11.736;2022-07-17T11:19:38;28.70;69.30
12268;DHT22;6196;48.398;11.736;2022-07-17T11:22:10;29.20;71.70
12268;DHT22;6196;48.398;11.736;2022-07-17T11:24:40;29.00;70.10
12268;DHT22;6196;48.398;11.736;2022-07-17T11:27:18;29.10;69.80
12268;DHT22;6196;48.398;11.736;2022-07-17T11:29:50;29.30;66.40
12268;DHT22;6196;48.398;11.736;2022-07-17T11:32:18;29.20;66.90
12268;DHT22;6196;48.398;11.736;2022-07-17T11:34:46;29.30;66.70
12268;DHT22;6196;48.398;11.736;2022-07-17T11:37:13;28.60;66.00
12268;DHT22;6196;48.398;11.736;2022-07-17T11:42:18;29.30;67.20
12268;DHT22;6196;48.398;11.736;2022-07-17T11:44:49;29.40;68.70
12268;DHT22;6196;48.398;11.736;2022-07-17T11:47:23;29.40;66.70
12268;DHT22;6196;48.398;11.736;2022-07-17T11:50:10;29.70;67.50
12268;DHT22;6196;48.398;11.736;2022-07-17T11:52:44;30.00;68.30
12268;DHT22;6196;48.398;11.736;2022-07-17T11:55:12;30.00;63.00
12268;DHT22;6196;48.398;11.736;2022-07-17T11:57:48;30.20;63.10
12268;DHT22;6196;48.398;11.736;2022-07-17T12:00:18;29.90;63.10
12268;DHT22;6196;48.398;11.736;2022-07-17T12:02:46;29.80;64.90
12268;DHT22;6196;48.398;11.736;2022-07-17T12:05:13;29.90;66.00
12268;DHT22;6196;48.398;11.736;2022-07-17T12:07:51;29.90;64.60
12268;DHT22;6196;48.398;11.736;2022-07-17T12:10:23;29.70;65.20
12268;DHT22;6196;48.398;11.736;2022-07-17T12:15:40;29.40;62.90
12268;DHT22;6196;48.398;11.736;2022-07-17T12:18:22;29.80;63.30
12268;DHT22;6196;48.398;11.736;2022-07-17T12:20:55;30.10;64.10
12268;DHT22;6196;48.398;11.736;2022-07-17T12:23:32;29.70;63.10
12268;DHT22;6196;48.398;11.736;2022-07-17T12:26:12;29.70;63.50
12268;DHT22;6196;48.398;11.736;2022-07-17T12:28:50;29.90;61.40
12268;DHT22;6196;48.398;11.736;2022-07-17T12:31:21;30.00;61.00
12268;DHT22;6196;48.398;11.736;2022-07-17T12:33:52;29.50;59.70
12268;DHT22;6196;48.398;11.736;2022-07-17T12:36:21;30.00;60.70
12268;DHT22;6196;48.398;11.736;2022-07-17T12:38:49;30.30;61.70
12268;DHT22;6196;48.398;11.736;2022-07-17T12:41:17;30.40;60.60
12268;DHT22;6196;48.398;11.736;2022-07-17T12:43:44;30.40;59.30
12268;DHT22;6196;48.398;11.736;2022-07-17T12:46:12;29.40;61.30
12268;DHT22;6196;48.398;11.736;2022-07-17T12:48:43;29.80;60.60
12268;DHT22;6196;48.398;11.736;2022-07-17T12:51:12;29.20;60.70
12268;DHT22;6196;48.398;11.736;2022-07-17T12:53:40;29.80;59.80
12268;DHT22;6196;48.398;11.736;2022-07-17T12:56:08;30.20;60.00
12268;DHT22;6196;48.398;11.736;2022-07-17T12:58:36;30.00;59.30
12268;DHT22;6196;48.398;11.736;2022-07-17T13:01:04;29.90;58.90
12268;DHT22;6196;48.398;11.736;2022-07-17T13:03:33;30.20;60.40
12268;DHT22;6196;48.398;11.736;2022-07-17T13:06:00;29.90;58.90
12268;DHT22;6196;48.398;11.736;2022-07-17T13:08:29;30.20;57.80
12268;DHT22;6196;48.398;11.736;2022-07-17T13:10:57;30.20;58.70
12268;DHT22;6196;48.398;11.736;2022-07-17T13:13:26;30.40;59.20
12268;DHT22;6196;48.398;11.736;2022-07-17T13:15:56;30.70;57.70
12268;DHT22;6196;48.398;11.736;2022-07-17T13:18:23;30.60;58.20
12268;DHT22;6196;48.398;11.736;2022-07-17T13:20:50;31.40;59.90
12268;DHT22;6196;48.398;11.736;2022-07-17T13:23:17;31.70;58.50
12268;DHT22;6196;48.398;11.736;2022-07-17T13:25:44;31.70;58.10
12268;DHT22;6196;48.398;11.736;2022-07-17T13:28:11;31.50;58.30
12268;DHT22;6196;48.398;11.736;2022-07-17T13:30:38;31.40;57.70
12268;DHT22;6196;48.398;11.736;2022-07-17T13:33:05;31.00;57.70
12268;DHT22;6196;48.398;11.736;2022-07-17T13:35:32;30.80;59.70
12268;DHT22;6196;48.398;11.736;2022-07-17T13:37:59;31.10;58.50
12268;DHT22;6196;48.398;11.736;2022-07-17T13:40:28;30.80;56.30
12268;DHT22;6196;48.398;11.736;2022-07-17T13:42:56;31.10;57.50
12268;DHT22;6196;48.398;11.736;2022-07-17T13:45:25;31.20;55.90
12268;DHT22;6196;48.398;11.736;2022-07-17T13:47:52;31.40;55.90
12268;DHT22;6196;48.398;11.736;2022-07-17T13:50:20;31.30;55.60
12268;DHT22;6196;48.398;11.736;2022-07-17T13:52:48;30.70;56.10
12268;DHT22;6196;48.398;11.736;2022-07-17T13:55:15;30.70;56.50
12268;DHT22;6196;48.398;11.736;2022-07-17T13:58:02;30.90;56.30
12268;DHT22;6196;48.398;11.736;2022-07-17T14:00:29;31.40;58.90
12268;DHT22;6196;48.398;11.736;2022-07-17T14:02:57;31.90;57.40
12268;DHT22;6196;48.398;11.736;2022-07-17T14:05:24;32.50;57.90
12268;DHT22;6196;48.398;11.736;2022-07-17T14:07:51;32.70;54.60
12268;DHT22;6196;48.398;11.736;2022-07-17T14:10:18;32.80;55.80
12268;DHT22;6196;48.398;11.736;2022-07-17T14:12:45;32.60;54.50
12268;DHT22;6196;48.398;11.736;2022-07-17T14:15:12;32.80;55.20
12268;DHT22;6196;48.398;11.736;2022-07-17T14:17:39;32.50;54.40
12268;DHT22;6196;48.398;11.736;2022-07-17T14:20:06;32.80;55.30
12268;DHT22;6196;48.398;11.736;2022-07-17T14:22:33;32.80;55.90
12268;DHT22;6196;48.398;11.736;2022-07-17T14:25:00;33.30;54.30
12268;DHT22;6196;48.398;11.736;2022-07-17T14:27:27;32.70;53.60
12268;DHT22;6196;48.398;11.736;2022-07-17T14:29:54;32.40;55.30
12268;DHT22;6196;48.398;11.736;2022-07-17T14:32:21;32.00;54.40
12268;DHT22;6196;48.398;11.736;2022-07-17T14:34:48;32.10;54.10
12268;DHT22;6196;48.398;11.736;2022-07-17T14:37:15;32.00;54.10
12268;DHT22;6196;48.398;11.736;2022-07-17T14:39:42;32.60;55.00
12268;DHT22;6196;48.398;11.736;2022-07-17T14:42:10;32.10;53.70
12268;DHT22;6196;48.398;11.736;2022-07-17T14:44:37;32.40;56.90
12268;DHT22;6196;48.398;11.736;2022-07-17T14:47:04;32.80;55.60
12268;DHT22;6196;48.398;11.736;2022-07-17T14:49:31;33.10;55.30
12268;DHT22;6196;48.398;11.736;2022-07-17T14:51:58;32.50;53.60
12268;DHT22;6196;48.398;11.736;2022-07-17T14:54:25;32.80;55.30
12268;DHT22;6196;48.398;11.736;2022-07-17T14:56:53;33.20;55.20
12268;DHT22;6196;48.398;11.736;2022-07-17T14:59:20;33.30;56.00
12268;DHT22;6196;48.398;11.736;2022-07-17T15:01:49;32.60;54.00
12268;DHT22;6196;48.398;11.736;2022-07-17T15:04:16;32.40;56.20
12268;DHT22;6196;48.398;11.736;2022-07-17T15:06:43;32.20;54.70
12268;DHT22;6196;48.398;11.736;2022-07-17T15:09:11;32.10;54.60
12268;DHT22;6196;48.398;11.736;2022-07-17T15:11:38;32.20;56.00
12268;DHT22;6196;48.398;11.736;2022-07-17T15:14:05;32.30;55.60
12268;DHT22;6196;48.398;11.736;2022-07-17T15:16:32;32.70;55.50
12268;DHT22;6196;48.398;11.736;2022-07-17T15:19:00;32.70;54.70
12268;DHT22;6196;48.398;11.736;2022-07-17T15:21:27;33.30;53.70
12268;DHT22;6196;48.398;11.736;2022-07-17T15:24:14;33.00;53.00
12268;DHT22;6196;48.398;11.736;2022-07-17T15:26:41;33.30;53.50
12268;DHT22;6196;48.398;11.736;2022-07-17T15:29:13;33.30;54.60
12268;DHT22;6196;48.398;11.736;2022-07-17T15:31:41;32.90;53.80
12268;DHT22;6196;48.398;11.736;2022-07-17T15:34:09;32.10;53.40
12268;DHT22;6196;48.398;11.736;2022-07-17T15:36:36;32.20;54.00
12268;DHT22;6196;48.398;11.736;2022-07-17T15:39:03;32.70;53.90
12268;DHT22;6196;48.398;11.736;2022-07-17T15:41:33;32.70;53.30
12268;DHT22;6196;48.398;11.736;2022-07-17T15:44:00;32.40;53.20
12268;DHT22;6196;48.398;11.736;2022-07-17T15:46:28;32.20;53.50
12268;DHT22;6196;48.398;11.736;2022-07-17T15:48:55;32.10;54.80
12268;DHT22;6196;48.398;11.736;2022-07-17T15:51:22;32.30;53.40
12268;DHT22;6196;48.398;11.736;2022-07-17T15:53:49;32.10;52.20